KBJJ/BJJ METAR and TAF weather

Enter ICAO airport designator
Station Type Date Time Source
KBJJ METAR 2019/08/22 08:56 UTC NOAA

KBJJ 220856Z AUTO 31007KT 10SM SCT120 20/19 A2996 RMK AO2 RAB40E49 SLP137 P0000 60000 T02000189 50000


Station Type Date Time Source
KBJJ Decoded METAR 2019/08/22 08:56 UTC NOAA

Station name not available
Aug 22, 2019 - 04:56 AM EDT / 2019.08.22 0856 UTC
Wind: from the NW (310 degrees) at 8 MPH (7 KT):0
Visibility: 10 mile(s):0
Sky conditions: partly cloudy
Precipitation last hour: A trace
Temperature: 68.0 F (20.0 C)
Dew Point: 66.0 F (18.9 C)
Relative Humidity: 93%
Pressure (altimeter): 29.96 in. Hg (1014 hPa)
Pressure tendency: 0.00 inches (0.0 hPa) higher than three hours ago
ob: KBJJ 220856Z AUTO 31007KT 10SM SCT120 20/19 A2996 RMK AO2 RAB40E49 SLP137 P0000 60000 T02000189 50000
cycle: 9

Station Type Date Time Source
KBJJ TAF UTC NOAA

Error!

Example: see airport list